Time;durP1;ratioP1;P1;durP2;ratioP2;P2;SDS_P1;SDS_P2;PMS_P1;PMS_P2;Temp;Humidity;BMP_temperature;BMP_pressure;BME280_temperature;BME280_humidity;BME280_pressure;Samples;Min_cycle;Max_cycle;Signal;HPM_P1;HPM_P2
2022/08/05 00:00:28;;;;;;;0.50;0.40;;;19.50;74.50;;;;;;4681513;30;20115;-86
2022/08/05 00:02:56;;;;;;;0.98;0.47;;;19.60;74.60;;;;;;4695863;30;20052;-86
2022/08/05 00:05:22;;;;;;;0.50;0.50;;;19.60;74.70;;;;;;4733481;30;20083;-86
2022/08/05 00:07:48;;;;;;;0.70;0.50;;;19.60;74.80;;;;;;4704598;30;20053;-86
2022/08/05 00:10:14;;;;;;;0.85;0.63;;;19.50;74.80;;;;;;4704662;30;20048;-85
2022/08/05 00:12:40;;;;;;;0.55;0.43;;;19.50;74.90;;;;;;4733428;30;20110;-84
2022/08/05 00:15:08;;;;;;;0.35;0.35;;;19.50;74.90;;;;;;4786877;29;20035;-85
2022/08/05 00:17:34;;;;;;;0.47;0.47;;;19.50;75.00;;;;;;4773256;29;20050;-83
2022/08/05 00:19:59;;;;;;;0.90;0.50;;;19.40;75.00;;;;;;4840540;29;20046;-84
2022/08/05 00:22:25;;;;;;;0.55;0.50;;;19.40;75.00;;;;;;4844449;29;20053;-84
2022/08/05 00:24:51;;;;;;;1.05;0.70;;;19.30;75.00;;;;;;4814265;29;20037;-83
2022/08/05 00:27:16;;;;;;;0.40;0.40;;;19.40;75.20;;;;;;4845025;29;20943;-84
2022/08/05 00:29:45;;;;;;;0.80;0.50;;;19.40;75.30;;;;;;4828856;29;20072;-86
2022/08/05 00:32:11;;;;;;;0.30;0.30;;;19.40;75.40;;;;;;4829194;29;20060;-83
2022/08/05 00:34:39;;;;;;;0.60;0.40;;;19.30;75.30;;;;;;4844857;29;20065;-83
2022/08/05 00:37:05;;;;;;;0.40;0.35;;;19.30;75.30;;;;;;4844654;29;20476;-83
2022/08/05 00:39:33;;;;;;;0.57;0.30;;;19.30;75.40;;;;;;4844569;29;20064;-84
2022/08/05 00:41:59;;;;;;;0.40;0.30;;;19.40;75.50;;;;;;4813910;29;20041;-83
2022/08/05 00:44:25;;;;;;;0.77;0.50;;;19.30;75.50;;;;;;4844735;29;20093;-84
2022/08/05 00:46:51;;;;;;;0.60;0.40;;;19.20;75.50;;;;;;4844688;29;20041;-84
2022/08/05 00:49:18;;;;;;;0.63;0.50;;;19.30;75.60;;;;;;4829568;29;20038;-83
2022/08/05 00:51:45;;;;;;;0.40;0.40;;;19.10;75.60;;;;;;4830063;29;20150;-84
2022/08/05 00:54:12;;;;;;;0.47;0.47;;;19.20;75.80;;;;;;4844452;29;20030;-83
2022/08/05 00:56:38;;;;;;;0.40;0.40;;;19.20;75.90;;;;;;4829467;29;20065;-83
2022/08/05 00:59:05;;;;;;;1.05;0.52;;;19.10;75.80;;;;;;4829082;29;20038;-82
2022/08/05 01:01:31;;;;;;;0.57;0.40;;;19.10;75.90;;;;;;4843813;29;20562;-82
2022/08/05 01:03:56;;;;;;;0.52;0.50;;;19.10;75.90;;;;;;4844835;29;20034;-82
2022/08/05 01:06:22;;;;;;;0.43;0.43;;;19.10;75.90;;;;;;4845476;29;20038;-83
2022/08/05 01:08:48;;;;;;;0.55;0.47;;;19.10;76.00;;;;;;4863092;29;20049;-84
2022/08/05 01:11:27;;;;;;;1.13;0.55;;;19.10;76.00;;;;;;4845597;29;20053;-83
2022/08/05 01:14:19;;;;;;;0.73;0.50;;;19.10;76.20;;;;;;4862211;29;20034;-83
2022/08/05 01:17:03;;;;;;;0.75;0.45;;;19.00;76.20;;;;;;4831935;29;20040;-82
2022/08/05 01:19:38;;;;;;;0.40;0.40;;;19.00;76.20;;;;;;4819498;29;20392;-83
2022/08/05 01:22:24;;;;;;;0.32;0.32;;;19.00;76.20;;;;;;4829234;29;20041;-83
2022/08/05 01:25:09;;;;;;;1.40;0.60;;;19.00;76.30;;;;;;4860526;29;20497;-82
2022/08/05 01:28:08;;;;;;;1.00;0.60;;;19.00;76.40;;;;;;4847049;29;20060;-84
2022/08/05 01:30:38;;;;;;;1.08;0.47;;;19.00;76.40;;;;;;4836561;29;20050;-83
2022/08/05 01:33:08;;;;;;;0.33;0.33;;;19.00;76.30;;;;;;4838888;29;20084;-83
2022/08/05 01:35:38;;;;;;;0.50;0.50;;;18.90;76.40;;;;;;4820664;29;20279;-83
2022/08/05 01:38:05;;;;;;;0.40;0.35;;;18.90;76.30;;;;;;4821464;29;20101;-83
2022/08/05 01:40:32;;;;;;;0.65;0.47;;;18.90;76.40;;;;;;4854086;29;20041;-82
2022/08/05 01:43:01;;;;;;;0.82;0.40;;;18.90;76.50;;;;;;4848347;29;20042;-82
2022/08/05 01:45:29;;;;;;;0.63;0.40;;;19.00;76.50;;;;;;4833473;29;20101;-82
2022/08/05 01:47:58;;;;;;;0.73;0.65;;;19.00;76.50;;;;;;4863285;29;20056;-83
2022/08/05 01:50:28;;;;;;;0.32;0.32;;;18.80;76.40;;;;;;4862133;29;20094;-82
2022/08/05 01:52:58;;;;;;;0.85;0.50;;;18.90;76.50;;;;;;4865743;29;20045;-83
2022/08/05 01:55:28;;;;;;;0.40;0.40;;;18.90;76.60;;;;;;4861385;29;20044;-82
2022/08/05 01:57:56;;;;;;;0.60;0.60;;;18.90;76.50;;;;;;4830517;29;20065;-84
2022/08/05 02:00:24;;;;;;;0.75;0.60;;;18.90;76.50;;;;;;4845407;29;20042;-82
2022/08/05 02:02:57;;;;;;;0.55;0.55;;;18.90;76.50;;;;;;4829052;29;20535;-82
2022/08/05 02:05:29;;;;;;;1.15;0.50;;;18.90;76.60;;;;;;4861697;29;20042;-82
2022/08/05 02:07:56;;;;;;;0.93;0.60;;;19.00;76.60;;;;;;4860121;29;20048;-82
2022/08/05 02:10:22;;;;;;;0.50;0.50;;;19.00;76.60;;;;;;4844681;29;20042;-83
2022/08/05 02:12:57;;;;;;;0.50;0.50;;;18.90;77.20;;;;;;4859880;29;20036;-82
2022/08/05 02:15:33;;;;;;;0.55;0.50;;;18.90;76.70;;;;;;4843348;29;20037;-83
2022/08/05 02:18:06;;;;;;;0.25;0.25;;;19.00;76.70;;;;;;4843413;29;20417;-83
2022/08/05 02:20:50;;;;;;;0.80;0.55;;;19.00;76.80;;;;;;4827888;29;20042;-82
2022/08/05 02:23:19;;;;;;;0.40;0.40;;;18.90;76.70;;;;;;4843072;29;20524;-83
2022/08/05 02:25:48;;;;;;;0.30;0.30;;;19.00;76.70;;;;;;4857416;29;20037;-82
2022/08/05 02:28:16;;;;;;;0.45;0.45;;;19.00;76.70;;;;;;4827971;29;20069;-82
2022/08/05 02:30:51;;;;;;;0.80;0.50;;;19.00;76.70;;;;;;4845490;29;20033;-83
2022/08/05 02:33:19;;;;;;;0.40;0.40;;;18.90;76.70;;;;;;4830516;29;20041;-82
2022/08/05 02:35:45;;;;;;;0.20;0.20;;;19.00;76.70;;;;;;4828542;29;20037;-83
2022/08/05 02:38:12;;;;;;;0.52;0.43;;;18.90;76.60;;;;;;4860849;29;20373;-82
2022/08/05 02:40:41;;;;;;;0.63;0.32;;;19.00;76.70;;;;;;4842673;29;20033;-83
2022/08/05 02:43:10;;;;;;;0.30;0.30;;;19.00;76.70;;;;;;4861857;29;20037;-83
2022/08/05 02:45:39;;;;;;;0.50;0.50;;;19.00;77.40;;;;;;4846485;29;20120;-82
2022/08/05 02:48:07;;;;;;;0.55;0.50;;;18.90;76.80;;;;;;4827868;29;20418;-82
2022/08/05 02:50:35;;;;;;;0.35;0.35;;;18.90;76.80;;;;;;4858645;29;20093;-83
2022/08/05 02:53:01;;;;;;;0.70;0.45;;;18.90;77.00;;;;;;4826605;29;20038;-82
2022/08/05 02:55:29;;;;;;;0.40;0.40;;;18.80;76.90;;;;;;4843321;29;20056;-83
2022/08/05 02:57:57;;;;;;;0.95;0.68;;;18.80;77.00;;;;;;4843563;29;20094;-83
2022/08/05 03:00:23;;;;;;;0.43;0.30;;;18.80;77.00;;;;;;4815973;29;20041;-82
2022/08/05 03:02:50;;;;;;;0.32;0.30;;;18.80;77.20;;;;;;4844893;29;20048;-82
2022/08/05 03:05:17;;;;;;;1.42;0.40;;;18.90;77.20;;;;;;4831097;29;20044;-82
2022/08/05 03:07:43;;;;;;;0.35;0.30;;;18.80;77.20;;;;;;4861435;29;20259;-82
2022/08/05 03:10:09;;;;;;;1.65;0.40;;;18.80;77.30;;;;;;4843581;29;20482;-82
2022/08/05 03:12:37;;;;;;;0.45;0.40;;;18.80;77.30;;;;;;4863926;29;20068;-82
2022/08/05 03:15:05;;;;;;;0.40;0.40;;;18.80;77.90;;;;;;4848013;29;20046;-83
2022/08/05 03:17:31;;;;;;;0.70;0.50;;;18.90;77.20;;;;;;4832642;29;20045;-82
2022/08/05 03:19:57;;;;;;;0.50;0.35;;;18.80;77.20;;;;;;4842755;29;20034;-82
2022/08/05 03:22:23;;;;;;;0.30;0.30;;;18.90;77.20;;;;;;4845025;29;20072;-83
2022/08/05 03:24:50;;;;;;;0.30;0.30;;;18.90;77.30;;;;;;4843003;29;20476;-82
2022/08/05 03:27:16;;;;;;;0.38;0.38;;;18.90;77.30;;;;;;4844004;29;20050;-83
2022/08/05 03:29:42;;;;;;;0.50;0.50;;;18.80;77.20;;;;;;4842733;29;20030;-82
2022/08/05 03:32:09;;;;;;;0.50;0.40;;;18.90;77.40;;;;;;4828878;29;20568;-83
2022/08/05 03:34:35;;;;;;;0.40;0.40;;;18.90;77.40;;;;;;4844111;29;20112;-82
2022/08/05 03:37:03;;;;;;;0.50;0.50;;;18.90;77.40;;;;;;4827938;29;20049;-82
2022/08/05 03:39:29;;;;;;;0.30;0.30;;;18.90;77.40;;;;;;4828769;29;20042;-82
2022/08/05 03:41:55;;;;;;;0.50;0.50;;;18.80;77.40;;;;;;4828458;29;20049;-82
2022/08/05 03:44:21;;;;;;;0.47;0.40;;;18.80;77.40;;;;;;4827145;29;20129;-83
2022/08/05 03:46:47;;;;;;;0.40;0.30;;;18.80;77.40;;;;;;4858781;29;20128;-82
2022/08/05 03:49:13;;;;;;;0.50;0.40;;;18.80;77.40;;;;;;4826704;29;20060;-83
2022/08/05 03:51:50;;;;;;;0.70;0.45;;;18.80;77.50;;;;;;4842562;29;20030;-83
2022/08/05 03:54:37;;;;;;;0.50;0.50;;;18.80;77.50;;;;;;4843199;29;20041;-83
2022/08/05 03:57:06;;;;;;;0.40;0.40;;;18.80;77.60;;;;;;4858318;29;20046;-82
2022/08/05 03:59:39;;;;;;;0.40;0.40;;;18.80;77.50;;;;;;4841993;29;20050;-82
2022/08/05 04:02:07;;;;;;;0.45;0.45;;;18.80;77.60;;;;;;4859119;29;20038;-82
2022/08/05 04:04:34;;;;;;;1.40;0.40;;;18.80;77.60;;;;;;4842160;29;20052;-84
2022/08/05 04:07:00;;;;;;;0.47;0.35;;;18.90;77.80;;;;;;4840706;29;20053;-83
2022/08/05 04:09:28;;;;;;;0.32;0.32;;;18.80;77.70;;;;;;4842590;29;20097;-82
2022/08/05 04:11:55;;;;;;;0.55;0.40;;;18.70;77.70;;;;;;4842548;29;20053;-82
2022/08/05 04:14:21;;;;;;;0.60;0.40;;;18.80;77.80;;;;;;4858909;29;20473;-82
2022/08/05 04:16:48;;;;;;;1.67;0.80;;;18.70;77.70;;;;;;4841720;29;20059;-82
2022/08/05 04:19:14;;;;;;;1.00;0.50;;;18.90;77.90;;;;;;4858870;29;20393;-82
2022/08/05 04:21:41;;;;;;;0.50;0.50;;;18.80;77.90;;;;;;4842432;29;20053;-83
2022/08/05 04:24:07;;;;;;;0.70;0.43;;;18.80;77.90;;;;;;4842459;29;20055;-83
2022/08/05 04:26:33;;;;;;;0.38;0.38;;;18.80;78.00;;;;;;4825071;29;20038;-84
2022/08/05 04:29:00;;;;;;;0.50;0.50;;;18.80;78.00;;;;;;4825283;29;20045;-83
2022/08/05 04:31:27;;;;;;;0.43;0.43;;;18.70;78.00;;;;;;4858278;29;20614;-82
2022/08/05 04:33:53;;;;;;;0.52;0.40;;;18.70;78.10;;;;;;4826732;29;20901;-83
2022/08/05 04:36:20;;;;;;;0.40;0.40;;;18.70;78.20;;;;;;4842451;29;20387;-82
2022/08/05 04:38:46;;;;;;;0.35;0.35;;;18.60;78.20;;;;;;4826804;29;20041;-82
2022/08/05 04:41:12;;;;;;;0.32;0.32;;;18.60;78.30;;;;;;4842485;29;20396;-83
2022/08/05 04:43:39;;;;;;;0.30;0.30;;;18.60;78.30;;;;;;4843147;29;20050;-83
2022/08/05 04:46:06;;;;;;;0.40;0.40;;;18.60;78.40;;;;;;4844793;29;20509;-83
2022/08/05 04:48:32;;;;;;;0.40;0.40;;;18.60;78.40;;;;;;4861463;29;20049;-83
2022/08/05 04:50:59;;;;;;;0.40;0.40;;;18.60;78.40;;;;;;4861279;29;20057;-83
2022/08/05 04:53:27;;;;;;;0.55;0.35;;;18.70;78.50;;;;;;4861056;29;20038;-82
2022/08/05 04:55:54;;;;;;;0.32;0.32;;;18.60;78.40;;;;;;4843697;29;20975;-83
2022/08/05 04:58:20;;;;;;;0.95;0.50;;;18.60;78.40;;;;;;4829304;29;20033;-83
2022/08/05 05:00:46;;;;;;;0.47;0.40;;;18.70;78.40;;;;;;4829837;29;20045;-82
2022/08/05 05:03:13;;;;;;;0.30;0.30;;;18.70;78.50;;;;;;4861455;29;20116;-82
2022/08/05 05:05:39;;;;;;;0.90;0.57;;;18.70;78.40;;;;;;4843697;29;20401;-82
2022/08/05 05:08:08;;;;;;;0.30;0.30;;;18.70;78.40;;;;;;4844421;29;20109;-82
2022/08/05 05:10:41;;;;;;;0.70;0.55;;;18.70;78.40;;;;;;4830092;29;20177;-82
2022/08/05 05:13:09;;;;;;;0.38;0.38;;;18.80;78.40;;;;;;4860954;29;20029;-84
2022/08/05 05:15:36;;;;;;;0.60;0.60;;;18.70;78.40;;;;;;4846478;29;20490;-82
2022/08/05 05:18:03;;;;;;;0.75;0.40;;;18.70;78.40;;;;;;4845137;29;20052;-81
2022/08/05 05:20:29;;;;;;;0.50;0.50;;;18.70;78.50;;;;;;4830699;29;20138;-82
2022/08/05 05:22:58;;;;;;;1.23;0.45;;;18.70;78.60;;;;;;4862706;29;20073;-82
2022/08/05 05:25:25;;;;;;;0.85;0.40;;;18.80;78.70;;;;;;4829905;29;20132;-82
2022/08/05 05:27:51;;;;;;;0.63;0.40;;;18.70;78.60;;;;;;4845324;29;20521;-82
2022/08/05 05:30:18;;;;;;;0.50;0.50;;;18.60;78.60;;;;;;4860971;29;20049;-82
2022/08/05 05:32:47;;;;;;;0.65;0.40;;;18.70;78.70;;;;;;4829646;29;20050;-81
2022/08/05 05:35:13;;;;;;;0.50;0.50;;;18.70;79.30;;;;;;4844301;29;20030;-81
2022/08/05 05:37:50;;;;;;;0.40;0.40;;;18.70;78.50;;;;;;4829260;29;20378;-82
2022/08/05 05:40:18;;;;;;;1.17;0.50;;;18.80;78.60;;;;;;4860652;29;20037;-81
2022/08/05 05:42:45;;;;;;;0.50;0.40;;;18.90;78.50;;;;;;4828851;29;20042;-82
2022/08/05 05:45:11;;;;;;;0.60;0.40;;;18.90;78.40;;;;;;4829009;29;20105;-82
2022/08/05 05:47:37;;;;;;;0.32;0.32;;;18.90;78.30;;;;;;4845455;29;20497;-80
2022/08/05 05:50:04;;;;;;;0.45;0.45;;;18.80;78.20;;;;;;4845991;29;20046;-81
2022/08/05 05:52:30;;;;;;;0.45;0.45;;;18.80;78.20;;;;;;4861626;29;20050;-81
2022/08/05 05:54:59;;;;;;;0.50;0.40;;;18.90;78.30;;;;;;4833190;29;20504;-83
2022/08/05 05:57:26;;;;;;;0.50;0.50;;;18.70;78.30;;;;;;4813812;29;20434;-83
2022/08/05 05:59:52;;;;;;;0.38;0.38;;;18.80;78.50;;;;;;4829427;29;20041;-84
2022/08/05 06:02:18;;;;;;;0.50;0.45;;;18.80;78.60;;;;;;4863413;29;20104;-84
2022/08/05 06:04:45;;;;;;;0.47;0.40;;;18.80;78.60;;;;;;4818685;29;20553;-82
2022/08/05 06:07:10;;;;;;;0.20;0.20;;;18.80;78.60;;;;;;4832742;29;20061;-82
2022/08/05 06:09:37;;;;;;;0.52;0.43;;;18.80;78.60;;;;;;4832979;29;20393;-84
2022/08/05 06:12:03;;;;;;;0.50;0.50;;;18.80;78.60;;;;;;4829193;29;20048;-82
2022/08/05 06:14:30;;;;;;;0.40;0.40;;;18.90;78.60;;;;;;4844356;29;20129;-83
2022/08/05 06:16:57;;;;;;;0.40;0.40;;;18.90;78.60;;;;;;4860239;29;20136;-84
2022/08/05 06:19:24;;;;;;;0.30;0.30;;;18.90;78.60;;;;;;4813858;29;20064;-82
2022/08/05 06:21:50;;;;;;;0.63;0.40;;;18.80;78.50;;;;;;4832446;29;20105;-82
2022/08/05 06:24:16;;;;;;;0.30;0.30;;;18.90;78.50;;;;;;4853385;29;20030;-83
2022/08/05 06:26:42;;;;;;;0.30;0.30;;;19.00;78.40;;;;;;4856189;29;20045;-84
2022/08/05 06:29:08;;;;;;;0.60;0.40;;;19.10;78.40;;;;;;4820652;29;20038;-84
2022/08/05 06:31:35;;;;;;;0.50;0.50;;;19.00;78.30;;;;;;4856772;29;20835;-81
2022/08/05 06:34:01;;;;;;;0.40;0.40;;;19.10;78.20;;;;;;4844240;29;20046;-80
2022/08/05 06:36:28;;;;;;;1.00;0.40;;;19.00;78.10;;;;;;4858850;29;20045;-80
2022/08/05 06:38:54;;;;;;;0.52;0.40;;;19.10;78.10;;;;;;4877521;29;20066;-80
2022/08/05 06:41:22;;;;;;;0.47;0.40;;;19.20;78.10;;;;;;4861451;29;20045;-81
2022/08/05 06:43:48;;;;;;;0.40;0.40;;;19.10;78.10;;;;;;4859019;29;20024;-79
2022/08/05 06:46:14;;;;;;;0.88;0.40;;;19.10;78.10;;;;;;4858979;29;20038;-82
2022/08/05 06:48:41;;;;;;;1.67;0.60;;;19.10;78.20;;;;;;4859893;29;20052;-79
2022/08/05 06:51:07;;;;;;;0.80;0.40;;;19.20;78.10;;;;;;4842952;29;20085;-77
2022/08/05 06:53:34;;;;;;;0.40;0.40;;;19.10;78.00;;;;;;4852294;29;20041;-77
2022/08/05 06:56:02;;;;;;;0.50;0.40;;;19.20;78.00;;;;;;4877509;29;20099;-77
2022/08/05 06:58:29;;;;;;;0.70;0.40;;;19.20;78.00;;;;;;4880444;29;20049;-77
2022/08/05 07:00:59;;;;;;;0.70;0.52;;;19.20;78.00;;;;;;4870633;29;20062;-77
2022/08/05 07:03:25;;;;;;;0.98;0.50;;;19.20;77.90;;;;;;4862523;29;20037;-78
2022/08/05 07:05:51;;;;;;;1.00;0.40;;;19.30;77.80;;;;;;4862838;29;20869;-78
2022/08/05 07:08:17;;;;;;;0.50;0.50;;;19.40;77.70;;;;;;4861726;29;20050;-78
2022/08/05 07:10:43;;;;;;;0.60;0.47;;;19.40;77.60;;;;;;4842642;29;20037;-77
2022/08/05 07:18:32;;;;;;;0.35;0.32;;;19.40;77.40;;;;;;4860846;29;20074;-77
2022/08/05 07:20:58;;;;;;;1.15;0.32;;;19.50;77.30;;;;;;4872686;29;20041;-77
2022/08/05 07:23:24;;;;;;;0.55;0.45;;;19.50;77.30;;;;;;4861552;29;20033;-77
2022/08/05 07:25:49;;;;;;;0.60;0.60;;;19.50;77.20;;;;;;4858059;29;20045;-77
2022/08/05 07:28:16;;;;;;;0.40;0.40;;;19.50;77.20;;;;;;4874175;29;20025;-76
2022/08/05 07:30:42;;;;;;;0.40;0.40;;;19.50;77.20;;;;;;4877144;29;20033;-77
2022/08/05 07:33:10;;;;;;;0.40;0.40;;;19.60;77.10;;;;;;4877795;29;20033;-76
2022/08/05 07:35:38;;;;;;;0.30;0.30;;;19.60;77.00;;;;;;4877973;29;20038;-76
2022/08/05 07:38:04;;;;;;;0.50;0.38;;;19.70;77.00;;;;;;4878271;29;20037;-76
2022/08/05 07:40:30;;;;;;;0.43;0.30;;;19.70;76.80;;;;;;4877477;29;20079;-76
2022/08/05 07:42:56;;;;;;;0.47;0.38;;;19.80;76.80;;;;;;4877729;29;20093;-76
2022/08/05 07:45:23;;;;;;;0.30;0.30;;;19.80;76.50;;;;;;4861551;29;20053;-76
2022/08/05 07:47:49;;;;;;;1.58;0.57;;;19.90;76.40;;;;;;4877843;29;20030;-76
2022/08/05 07:50:15;;;;;;;0.57;0.50;;;20.00;76.30;;;;;;4877915;29;20878;-76
2022/08/05 07:52:42;;;;;;;0.60;0.43;;;20.00;76.00;;;;;;4861598;29;21498;-76
2022/08/05 07:55:09;;;;;;;0.85;0.40;;;20.20;76.00;;;;;;4877696;29;20120;-77
2022/08/05 07:57:36;;;;;;;1.05;0.65;;;20.20;75.80;;;;;;4877649;29;20060;-77
2022/08/05 08:00:04;;;;;;;0.50;0.45;;;20.30;75.40;;;;;;4861590;29;20083;-76
2022/08/05 08:02:30;;;;;;;0.63;0.50;;;20.50;75.40;;;;;;4877316;29;20054;-76
2022/08/05 08:04:56;;;;;;;0.65;0.50;;;20.70;74.80;;;;;;4877362;29;20045;-77
2022/08/05 08:07:23;;;;;;;0.40;0.40;;;20.80;74.40;;;;;;4861644;29;20079;-77
2022/08/05 08:09:51;;;;;;;0.43;0.43;;;21.10;74.10;;;;;;4878997;29;20033;-77
2022/08/05 08:12:18;;;;;;;0.90;0.40;;;21.20;73.40;;;;;;4878119;29;20037;-76
2022/08/05 08:14:45;;;;;;;1.02;0.50;;;21.30;73.30;;;;;;4861668;29;20060;-76
2022/08/05 08:17:10;;;;;;;0.43;0.43;;;21.40;73.10;;;;;;4877721;29;20065;-76
2022/08/05 08:19:37;;;;;;;0.32;0.32;;;21.50;72.90;;;;;;4879997;29;20397;-77
2022/08/05 08:22:05;;;;;;;0.45;0.40;;;21.60;72.30;;;;;;4881742;29;20033;-76
2022/08/05 08:24:32;;;;;;;0.40;0.40;;;21.70;72.20;;;;;;4865176;29;20049;-76
2022/08/05 08:26:58;;;;;;;0.30;0.30;;;21.80;72.30;;;;;;4881524;29;20045;-76
2022/08/05 08:29:24;;;;;;;0.40;0.40;;;21.80;72.30;;;;;;4883153;29;20068;-76
2022/08/05 08:31:50;;;;;;;0.32;0.32;;;21.80;72.20;;;;;;4881622;29;20112;-76
2022/08/05 08:34:18;;;;;;;0.35;0.30;;;21.80;72.30;;;;;;4881181;29;20050;-76
2022/08/05 08:36:44;;;;;;;0.63;0.50;;;21.70;72.30;;;;;;4880948;29;20045;-76
2022/08/05 08:39:11;;;;;;;1.05;0.30;;;21.80;72.30;;;;;;4866105;29;20033;-76
2022/08/05 08:41:40;;;;;;;0.40;0.40;;;22.00;72.20;;;;;;4865158;29;20038;-77
2022/08/05 08:44:08;;;;;;;0.28;0.28;;;22.00;72.00;;;;;;4881167;29;20089;-76
2022/08/05 08:46:34;;;;;;;0.38;0.30;;;22.00;71.90;;;;;;4881166;29;20049;-76
2022/08/05 08:49:03;;;;;;;0.65;0.50;;;22.00;71.80;;;;;;4848131;29;20050;-76
2022/08/05 08:51:32;;;;;;;0.73;0.40;;;21.90;71.80;;;;;;4878414;29;20045;-76
2022/08/05 08:53:59;;;;;;;0.28;0.28;;;21.90;72.00;;;;;;4863574;29;20071;-76
2022/08/05 08:56:25;;;;;;;0.20;0.20;;;21.90;72.10;;;;;;4881652;29;20108;-77
2022/08/05 08:58:52;;;;;;;0.40;0.40;;;21.90;72.20;;;;;;4881215;29;20050;-76
2022/08/05 09:01:18;;;;;;;0.30;0.30;;;21.80;72.30;;;;;;4881047;29;20043;-76
2022/08/05 09:03:53;;;;;;;0.30;0.30;;;21.70;72.50;;;;;;4864665;29;20041;-76
2022/08/05 09:06:21;;;;;;;0.30;0.30;;;21.60;72.70;;;;;;4880510;29;20052;-76
2022/08/05 09:08:47;;;;;;;0.40;0.30;;;21.60;72.90;;;;;;4880729;29;20057;-76
2022/08/05 09:11:13;;;;;;;0.98;0.50;;;21.50;72.90;;;;;;4881202;29;20090;-77
2022/08/05 09:13:40;;;;;;;0.40;0.40;;;21.40;72.90;;;;;;4865170;29;20040;-76
2022/08/05 09:16:08;;;;;;;0.85;0.30;;;21.40;72.90;;;;;;4880004;29;20037;-76
2022/08/05 09:18:35;;;;;;;0.32;0.32;;;21.30;72.90;;;;;;4879965;29;20037;-76
2022/08/05 09:21:02;;;;;;;0.30;0.30;;;21.40;72.90;;;;;;4880563;29;20065;-76
2022/08/05 09:23:28;;;;;;;0.30;0.30;;;21.50;72.70;;;;;;4879425;29;20097;-76
2022/08/05 09:26:08;;;;;;;0.40;0.40;;;21.40;72.40;;;;;;4879306;29;20048;-77
2022/08/05 09:28:37;;;;;;;0.30;0.30;;;21.50;72.20;;;;;;4879623;29;20119;-76
2022/08/05 09:31:07;;;;;;;0.40;0.40;;;21.50;71.80;;;;;;4860744;29;20037;-75
2022/08/05 09:33:50;;;;;;;0.28;0.28;;;21.50;71.60;;;;;;4877098;29;20063;-76
2022/08/05 09:36:18;;;;;;;0.30;0.30;;;21.50;71.40;;;;;;4876128;29;20124;-76
2022/08/05 09:39:06;;;;;;;1.52;0.40;;;21.70;71.20;;;;;;4874959;29;20507;-75
2022/08/05 09:41:32;;;;;;;0.40;0.30;;;22.00;70.40;;;;;;4876839;29;20050;-75
2022/08/05 09:43:59;;;;;;;0.47;0.30;;;22.20;69.90;;;;;;4861047;29;20124;-76
2022/08/05 09:46:30;;;;;;;0.30;0.30;;;22.50;69.00;;;;;;4878283;29;20056;-76
2022/08/05 09:48:59;;;;;;;0.20;0.20;;;22.70;68.10;;;;;;4879910;29;20120;-77
2022/08/05 09:51:36;;;;;;;0.28;0.28;;;22.70;67.70;;;;;;4880217;29;20101;-76
2022/08/05 09:54:05;;;;;;;0.45;0.40;;;22.70;67.60;;;;;;4863762;29;20618;-76
2022/08/05 09:56:33;;;;;;;0.30;0.30;;;22.90;67.60;;;;;;4878917;29;20037;-76
2022/08/05 09:59:04;;;;;;;0.38;0.25;;;23.00;67.10;;;;;;4878205;29;20041;-75
2022/08/05 10:01:32;;;;;;;0.20;0.20;;;23.10;66.70;;;;;;4877635;29;20044;-75
2022/08/05 10:04:03;;;;;;;1.40;0.28;;;23.30;66.40;;;;;;4877917;29;20046;-76
2022/08/05 10:06:29;;;;;;;;;;;23.40;66.00;;;;;;4860682;29;20056;-75
2022/08/05 10:09:08;;;;;;;0.32;0.30;;;23.50;66.00;;;;;;4878524;29;19987;-76
2022/08/05 10:11:34;;;;;;;0.47;0.25;;;23.70;65.60;;;;;;4860660;29;20050;-75
2022/08/05 10:14:24;;;;;;;0.38;0.30;;;23.90;64.60;;;;;;4861658;29;20052;-75
2022/08/05 10:16:50;;;;;;;0.30;0.30;;;23.80;65.00;;;;;;4878878;29;20124;-75
2022/08/05 10:19:16;;;;;;;0.20;0.20;;;23.70;64.70;;;;;;4877720;29;20072;-75
2022/08/05 10:21:44;;;;;;;0.85;0.30;;;23.60;65.00;;;;;;4876087;29;20042;-75
2022/08/05 10:24:12;;;;;;;0.63;0.30;;;23.50;65.10;;;;;;4877324;29;20044;-75
2022/08/05 10:26:41;;;;;;;0.30;0.30;;;23.60;65.20;;;;;;4877501;29;20042;-77
2022/08/05 10:29:08;;;;;;;0.50;0.38;;;23.70;64.70;;;;;;4875249;29;20069;-75
2022/08/05 10:31:37;;;;;;;0.40;0.30;;;23.90;64.30;;;;;;4875280;29;20064;-74
2022/08/05 10:34:03;;;;;;;0.20;0.20;;;24.10;63.50;;;;;;4874637;29;20049;-75
2022/08/05 10:36:30;;;;;;;0.30;0.30;;;24.20;63.20;;;;;;4875268;29;20048;-75
2022/08/05 10:39:02;;;;;;;0.20;0.20;;;24.30;63.10;;;;;;4845756;29;20042;-74
2022/08/05 10:41:35;;;;;;;0.35;0.35;;;24.20;62.80;;;;;;4873839;29;20068;-76
2022/08/05 10:44:08;;;;;;;0.30;0.30;;;24.20;62.80;;;;;;4870135;29;20079;-74
2022/08/05 10:46:52;;;;;;;0.40;0.40;;;24.20;62.70;;;;;;4849440;29;20066;-75
2022/08/05 10:49:19;;;;;;;0.57;0.20;;;24.20;62.70;;;;;;4869474;29;20057;-74
2022/08/05 10:51:48;;;;;;;0.20;0.20;;;24.10;62.70;;;;;;4871883;29;20435;-74
2022/08/05 10:54:16;;;;;;;0.20;0.20;;;24.10;62.60;;;;;;4870357;29;20949;-74
2022/08/05 10:56:54;;;;;;;0.85;0.30;;;24.00;62.50;;;;;;4870096;29;20044;-74
2022/08/05 10:59:29;;;;;;;0.43;0.22;;;23.90;62.30;;;;;;4854227;29;20076;-74
2022/08/05 11:02:12;;;;;;;0.20;0.20;;;24.10;62.00;;;;;;4852632;29;20044;-74
2022/08/05 11:04:47;;;;;;;0.20;0.20;;;24.20;61.70;;;;;;4871535;29;20058;-74
2022/08/05 11:07:17;;;;;;;0.40;0.40;;;24.20;61.30;;;;;;4872160;29;20042;-75
2022/08/05 11:09:48;;;;;;;0.20;0.20;;;24.20;61.20;;;;;;4872838;29;20076;-75
2022/08/05 11:12:43;;;;;;;1.20;0.25;;;24.30;61.00;;;;;;4865425;29;20034;-75
2022/08/05 11:15:18;;;;;;;0.30;0.30;;;24.50;60.60;;;;;;4872092;29;20584;-75
2022/08/05 11:17:46;;;;;;;0.32;0.20;;;24.60;60.10;;;;;;4860558;29;20049;-74
2022/08/05 11:20:37;;;;;;;0.32;0.25;;;24.60;59.80;;;;;;4875829;29;20057;-75
2022/08/05 11:23:34;;;;;;;0.20;0.20;;;24.60;59.70;;;;;;4874804;29;20046;-76
2022/08/05 11:26:06;;;;;;;0.52;0.35;;;24.50;59.60;;;;;;4873499;29;20046;-76
2022/08/05 11:28:41;;;;;;;0.35;0.20;;;24.30;59.60;;;;;;4875747;29;20109;-76
2022/08/05 11:31:18;;;;;;;0.30;0.30;;;24.10;59.50;;;;;;4875095;29;20053;-75
2022/08/05 11:33:57;;;;;;;0.63;0.30;;;24.10;59.70;;;;;;4874444;29;20033;-74
2022/08/05 11:36:39;;;;;;;0.30;0.30;;;24.00;59.30;;;;;;4874941;29;20128;-75
2022/08/05 11:39:07;;;;;;;0.20;0.20;;;24.10;59.30;;;;;;4874645;29;20073;-75
2022/08/05 11:41:34;;;;;;;0.35;0.22;;;24.00;59.30;;;;;;4851371;29;20042;-76
2022/08/05 11:44:05;;;;;;;0.57;0.30;;;23.90;59.10;;;;;;4870337;29;20066;-75
2022/08/05 11:46:37;;;;;;;0.20;0.20;;;23.90;58.90;;;;;;4855364;29;20039;-74
2022/08/05 11:49:05;;;;;;;0.30;0.30;;;23.90;58.80;;;;;;4870385;29;20060;-75
2022/08/05 11:51:31;;;;;;;0.65;0.20;;;23.90;59.30;;;;;;4874714;29;20045;-74
2022/08/05 11:53:57;;;;;;;0.30;0.20;;;23.80;58.60;;;;;;4872481;29;20045;-74
2022/08/05 11:56:23;;;;;;;0.20;0.20;;;23.70;58.60;;;;;;4842732;29;20030;-75
2022/08/05 11:58:50;;;;;;;0.20;0.20;;;23.70;58.60;;;;;;4873949;29;20063;-74
2022/08/05 12:01:18;;;;;;;0.55;0.28;;;23.70;58.40;;;;;;4873408;29;20067;-75
2022/08/05 12:03:50;;;;;;;0.20;0.20;;;23.70;58.30;;;;;;4874030;29;20046;-75
2022/08/05 12:06:17;;;;;;;0.20;0.20;;;23.70;58.10;;;;;;4841784;29;20049;-76
2022/08/05 12:08:48;;;;;;;0.70;0.28;;;23.80;57.70;;;;;;4856983;29;20090;-75
2022/08/05 12:11:24;;;;;;;1.08;0.30;;;23.90;57.30;;;;;;4871554;29;20041;-75
2022/08/05 12:13:58;;;;;;;0.30;0.30;;;23.80;56.90;;;;;;4869026;29;20037;-75
2022/08/05 12:16:27;;;;;;;0.30;0.30;;;23.80;57.10;;;;;;4854456;29;20045;-76
2022/08/05 12:19:00;;;;;;;0.20;0.20;;;23.90;56.70;;;;;;4871233;29;20223;-76
2022/08/05 12:21:28;;;;;;;1.85;0.30;;;24.00;56.20;;;;;;4868294;29;20049;-74
2022/08/05 12:24:12;;;;;;;0.20;0.20;;;23.80;55.80;;;;;;4865658;29;20140;-75
2022/08/05 12:26:41;;;;;;;0.20;0.20;;;23.70;55.60;;;;;;4863877;29;20409;-75
2022/08/05 12:29:12;;;;;;;0.68;0.40;;;23.70;55.60;;;;;;4869275;29;20108;-75
2022/08/05 12:31:39;;;;;;;0.30;0.30;;;23.60;55.20;;;;;;4854332;29;20048;-75
2022/08/05 12:34:07;;;;;;;0.30;0.20;;;23.60;55.30;;;;;;4869440;29;20037;-75
2022/08/05 12:36:34;;;;;;;0.20;0.20;;;23.60;55.20;;;;;;4866976;29;20038;-75
2022/08/05 12:39:00;;;;;;;0.20;0.20;;;23.50;54.90;;;;;;4869350;29;20049;-75
2022/08/05 12:41:31;;;;;;;0.20;0.20;;;23.50;54.80;;;;;;4872518;29;20108;-74
2022/08/05 12:44:00;;;;;;;0.38;0.28;;;23.50;54.80;;;;;;4851963;29;20097;-76
2022/08/05 12:46:28;;;;;;;0.20;0.20;;;23.50;54.80;;;;;;4864601;29;20042;-75
2022/08/05 12:49:00;;;;;;;0.57;0.28;;;23.60;54.70;;;;;;4866503;29;20514;-75
2022/08/05 12:51:26;;;;;;;0.20;0.20;;;23.60;54.30;;;;;;4864832;29;20092;-75
2022/08/05 12:53:59;;;;;;;0.20;0.20;;;23.70;54.10;;;;;;4863964;29;20581;-75
2022/08/05 12:56:25;;;;;;;0.32;0.32;;;23.70;53.60;;;;;;4850081;29;20116;-76
2022/08/05 12:59:09;;;;;;;0.50;0.38;;;23.70;53.40;;;;;;4864654;29;20057;-74
2022/08/05 13:01:36;;;;;;;0.20;0.20;;;23.70;53.40;;;;;;4865689;29;20045;-75